sensor_id;sensor_type;location;lat;lon;timestamp;pressure;altitude;pressure_sealevel;temperature;humidity
69751;BME280;57335;52.288;6.056;2023-04-02T00:03:08;101251.56;;;5.36;100.00
69751;BME280;57335;52.288;6.056;2023-04-02T00:05:38;101254.97;;;5.28;100.00
69751;BME280;57335;52.288;6.056;2023-04-02T00:08:43;101258.34;;;5.29;100.00
69751;BME280;57335;52.288;6.056;2023-04-02T00:11:26;101259.66;;;5.16;100.00
69751;BME280;57335;52.288;6.056;2023-04-02T00:13:59;101273.78;;;5.22;100.00
69751;BME280;57335;52.288;6.056;2023-04-02T00:16:27;101270.69;;;5.18;100.00
69751;BME280;57335;52.288;6.056;2023-04-02T00:18:57;101279.16;;;5.29;100.00
69751;BME280;57335;52.288;6.056;2023-04-02T00:21:28;101288.56;;;5.22;100.00
69751;BME280;57335;52.288;6.056;2023-04-02T00:23:59;101280.94;;;5.20;100.00
69751;BME280;57335;52.288;6.056;2023-04-02T00:26:41;101284.84;;;5.24;100.00
69751;BME280;57335;52.288;6.056;2023-04-02T00:29:11;101287.09;;;5.19;100.00
69751;BME280;57335;52.288;6.056;2023-04-02T00:31:40;101294.06;;;5.10;100.00
69751;BME280;57335;52.288;6.056;2023-04-02T00:34:18;101301.38;;;5.23;100.00
69751;BME280;57335;52.288;6.056;2023-04-02T00:36:46;101309.22;;;5.39;100.00
69751;BME280;57335;52.288;6.056;2023-04-02T00:39:18;101313.91;;;5.28;100.00
69751;BME280;57335;52.288;6.056;2023-04-02T00:41:45;101328.06;;;5.25;100.00
69751;BME280;57335;52.288;6.056;2023-04-02T00:44:15;101325.25;;;5.18;100.00
69751;BME280;57335;52.288;6.056;2023-04-02T00:46:43;101323.81;;;5.24;100.00
69751;BME280;57335;52.288;6.056;2023-04-02T00:49:17;101316.84;;;5.33;100.00
69751;BME280;57335;52.288;6.056;2023-04-02T00:51:48;101334.84;;;5.26;100.00
69751;BME280;57335;52.288;6.056;2023-04-02T00:54:19;101334.72;;;5.36;100.00
69751;BME280;57335;52.288;6.056;2023-04-02T00:56:49;101343.44;;;5.18;100.00
69751;BME280;57335;52.288;6.056;2023-04-02T00:59:29;101345.09;;;5.28;100.00
69751;BME280;57335;52.288;6.056;2023-04-02T01:02:19;101355.16;;;5.31;100.00
69751;BME280;57335;52.288;6.056;2023-04-02T01:05:01;101353.69;;;5.20;100.00
69751;BME280;57335;52.288;6.056;2023-04-02T01:13:08;101365.88;;;5.19;100.00
69751;BME280;57335;52.288;6.056;2023-04-02T01:15:42;101376.88;;;5.05;100.00
69751;BME280;57335;52.288;6.056;2023-04-02T01:18:36;101370.03;;;5.04;100.00
69751;BME280;57335;52.288;6.056;2023-04-02T01:24:03;101381.06;;;5.06;100.00
69751;BME280;57335;52.288;6.056;2023-04-02T01:29:09;101392.44;;;5.05;100.00
69751;BME280;57335;52.288;6.056;2023-04-02T01:31:37;101398.44;;;5.06;100.00
69751;BME280;57335;52.288;6.056;2023-04-02T01:34:07;101402.78;;;4.97;100.00
69751;BME280;57335;52.288;6.056;2023-04-02T01:45:13;101415.63;;;4.98;100.00
69751;BME280;57335;52.288;6.056;2023-04-02T01:47:42;101409.06;;;4.86;100.00
69751;BME280;57335;52.288;6.056;2023-04-02T01:52:47;101430.81;;;4.85;100.00
69751;BME280;57335;52.288;6.056;2023-04-02T01:55:18;101435.13;;;4.76;100.00
69751;BME280;57335;52.288;6.056;2023-04-02T01:57:48;101435.59;;;4.72;100.00
69751;BME280;57335;52.288;6.056;2023-04-02T02:00:18;101449.19;;;4.66;100.00
69751;BME280;57335;52.288;6.056;2023-04-02T02:02:48;101454.91;;;4.69;100.00
69751;BME280;57335;52.288;6.056;2023-04-02T02:05:17;101452.41;;;4.59;100.00
69751;BME280;57335;52.288;6.056;2023-04-02T02:07:45;101451.22;;;4.54;100.00
69751;BME280;57335;52.288;6.056;2023-04-02T02:10:41;101457.22;;;4.54;100.00
69751;BME280;57335;52.288;6.056;2023-04-02T02:13:13;101466.34;;;4.40;100.00
69751;BME280;57335;52.288;6.056;2023-04-02T02:15:40;101473.31;;;4.58;100.00
69751;BME280;57335;52.288;6.056;2023-04-02T02:18:06;101474.44;;;4.55;100.00
69751;BME280;57335;52.288;6.056;2023-04-02T02:20:35;101475.19;;;4.48;100.00
69751;BME280;57335;52.288;6.056;2023-04-02T02:23:03;101478.91;;;4.45;100.00
69751;BME280;57335;52.288;6.056;2023-04-02T02:25:32;101495.69;;;4.59;100.00
69751;BME280;57335;52.288;6.056;2023-04-02T02:28:20;101492.13;;;4.60;100.00
69751;BME280;57335;52.288;6.056;2023-04-02T02:30:58;101498.13;;;4.60;100.00
69751;BME280;57335;52.288;6.056;2023-04-02T02:33:40;101505.50;;;4.47;100.00
69751;BME280;57335;52.288;6.056;2023-04-02T02:36:30;101517.91;;;4.53;100.00
69751;BME280;57335;52.288;6.056;2023-04-02T02:39:19;101506.25;;;4.57;100.00
69751;BME280;57335;52.288;6.056;2023-04-02T02:41:51;101519.75;;;4.61;100.00
69751;BME280;57335;52.288;6.056;2023-04-02T02:44:21;101529.97;;;4.63;100.00
69751;BME280;57335;52.288;6.056;2023-04-02T02:46:53;101529.81;;;4.46;100.00
69751;BME280;57335;52.288;6.056;2023-04-02T02:49:27;101528.88;;;4.29;100.00
69751;BME280;57335;52.288;6.056;2023-04-02T02:54:32;101547.19;;;4.00;100.00
69751;BME280;57335;52.288;6.056;2023-04-02T02:57:02;101539.84;;;3.95;100.00
69751;BME280;57335;52.288;6.056;2023-04-02T02:59:32;101554.59;;;3.95;100.00
69751;BME280;57335;52.288;6.056;2023-04-02T03:02:00;101555.75;;;3.83;100.00
69751;BME280;57335;52.288;6.056;2023-04-02T03:04:28;101566.28;;;3.81;100.00
69751;BME280;57335;52.288;6.056;2023-04-02T03:06:56;101569.84;;;3.70;100.00
69751;BME280;57335;52.288;6.056;2023-04-02T03:09:48;101572.16;;;3.73;100.00
69751;BME280;57335;52.288;6.056;2023-04-02T03:15:19;101589.09;;;3.68;100.00
69751;BME280;57335;52.288;6.056;2023-04-02T03:18:09;101591.97;;;3.65;100.00
69751;BME280;57335;52.288;6.056;2023-04-02T03:20:44;101598.38;;;3.70;99.38
69751;BME280;57335;52.288;6.056;2023-04-02T03:26:39;101602.13;;;3.48;100.00
69751;BME280;57335;52.288;6.056;2023-04-02T03:28:42;101618.31;;;3.60;99.38
69751;BME280;57335;52.288;6.056;2023-04-02T03:31:16;101623.63;;;3.58;100.00
69751;BME280;57335;52.288;6.056;2023-04-02T03:33:56;101635.50;;;3.61;100.00
69751;BME280;57335;52.288;6.056;2023-04-02T03:36:26;101645.03;;;3.60;99.79
69751;BME280;57335;52.288;6.056;2023-04-02T03:39:00;101631.44;;;3.49;100.00
69751;BME280;57335;52.288;6.056;2023-04-02T03:41:42;101645.09;;;3.41;100.00
69751;BME280;57335;52.288;6.056;2023-04-02T03:44:20;101653.94;;;3.38;98.99
69751;BME280;57335;52.288;6.056;2023-04-02T03:47:09;101647.03;;;3.29;98.78
69751;BME280;57335;52.288;6.056;2023-04-02T03:49:57;101662.28;;;3.23;98.81
69751;BME280;57335;52.288;6.056;2023-04-02T03:52:27;101656.16;;;3.14;98.69
69751;BME280;57335;52.288;6.056;2023-04-02T03:54:55;101663.91;;;3.04;99.32
69751;BME280;57335;52.288;6.056;2023-04-02T03:59:52;101685.44;;;3.05;97.55
69751;BME280;57335;52.288;6.056;2023-04-02T04:02:40;101694.59;;;2.99;97.10
69751;BME280;57335;52.288;6.056;2023-04-02T04:05:20;101693.91;;;2.97;98.66
69751;BME280;57335;52.288;6.056;2023-04-02T04:07:50;101699.63;;;2.91;98.31
69751;BME280;57335;52.288;6.056;2023-04-02T04:10:23;101702.22;;;3.00;98.37
69751;BME280;57335;52.288;6.056;2023-04-02T04:12:53;101711.06;;;2.88;97.83
69751;BME280;57335;52.288;6.056;2023-04-02T04:15:35;101725.09;;;2.86;99.58
69751;BME280;57335;52.288;6.056;2023-04-02T04:20:54;101724.31;;;2.95;100.00
69751;BME280;57335;52.288;6.056;2023-04-02T04:23:27;101731.91;;;2.96;100.00
69751;BME280;57335;52.288;6.056;2023-04-02T04:25:57;101743.63;;;2.81;98.04
69751;BME280;57335;52.288;6.056;2023-04-02T04:28:31;101744.88;;;2.87;98.49
69751;BME280;57335;52.288;6.056;2023-04-02T04:31:11;101754.13;;;2.89;98.47
69751;BME280;57335;52.288;6.056;2023-04-02T04:33:43;101748.94;;;2.79;98.08
69751;BME280;57335;52.288;6.056;2023-04-02T04:36:23;101751.31;;;2.62;98.52
69751;BME280;57335;52.288;6.056;2023-04-02T04:38:51;101767.09;;;2.58;98.54
69751;BME280;57335;52.288;6.056;2023-04-02T04:41:22;101771.63;;;2.66;99.16
69751;BME280;57335;52.288;6.056;2023-04-02T04:46:41;101778.88;;;2.42;98.57
69751;BME280;57335;52.288;6.056;2023-04-02T04:49:14;101779.22;;;2.27;98.23
69751;BME280;57335;52.288;6.056;2023-04-02T04:54:36;101799.66;;;2.30;100.00
69751;BME280;57335;52.288;6.056;2023-04-02T04:57:05;101807.06;;;2.35;100.00
69751;BME280;57335;52.288;6.056;2023-04-02T04:59:43;101812.84;;;2.27;100.00
69751;BME280;57335;52.288;6.056;2023-04-02T05:02:18;101819.47;;;2.20;99.23
69751;BME280;57335;52.288;6.056;2023-04-02T05:04:49;101828.69;;;2.34;98.32
69751;BME280;57335;52.288;6.056;2023-04-02T05:07:30;101835.94;;;2.19;98.72
69751;BME280;57335;52.288;6.056;2023-04-02T05:10:19;101847.28;;;2.28;99.15
69751;BME280;57335;52.288;6.056;2023-04-02T05:13:33;101855.78;;;2.18;98.46
69751;BME280;57335;52.288;6.056;2023-04-02T05:16:22;101858.66;;;2.15;98.83
69751;BME280;57335;52.288;6.056;2023-04-02T05:18:57;101866.53;;;2.14;99.44
69751;BME280;57335;52.288;6.056;2023-04-02T05:21:41;101866.53;;;2.14;100.00
69751;BME280;57335;52.288;6.056;2023-04-02T05:24:43;101887.59;;;2.09;98.21
69751;BME280;57335;52.288;6.056;2023-04-02T05:27:35;101894.59;;;2.18;97.77
69751;BME280;57335;52.288;6.056;2023-04-02T05:35:23;101910.94;;;2.19;99.02
69751;BME280;57335;52.288;6.056;2023-04-02T05:37:52;101927.28;;;2.19;97.11
69751;BME280;57335;52.288;6.056;2023-04-02T05:40:36;101930.25;;;2.15;96.93
69751;BME280;57335;52.288;6.056;2023-04-02T05:43:08;101940.81;;;2.12;97.16
69751;BME280;57335;52.288;6.056;2023-04-02T05:45:36;101936.47;;;2.12;96.68
69751;BME280;57335;52.288;6.056;2023-04-02T05:48:15;101945.06;;;2.13;96.44
69751;BME280;57335;52.288;6.056;2023-04-02T05:50:46;101951.03;;;2.13;95.43
69751;BME280;57335;52.288;6.056;2023-04-02T05:53:25;101963.47;;;2.19;95.93
69751;BME280;57335;52.288;6.056;2023-04-02T05:55:55;101965.38;;;2.17;97.35
69751;BME280;57335;52.288;6.056;2023-04-02T05:58:28;101966.56;;;2.13;97.05
69751;BME280;57335;52.288;6.056;2023-04-02T06:06:47;101989.28;;;1.98;99.07
69751;BME280;57335;52.288;6.056;2023-04-02T06:09:26;101987.56;;;1.76;100.00
69751;BME280;57335;52.288;6.056;2023-04-02T06:14:52;102003.88;;;1.88;100.00
69751;BME280;57335;52.288;6.056;2023-04-02T06:17:20;102010.09;;;1.86;100.00
69751;BME280;57335;52.288;6.056;2023-04-02T06:19:47;102014.81;;;1.81;100.00
69751;BME280;57335;52.288;6.056;2023-04-02T06:22:30;102019.75;;;1.84;100.00
69751;BME280;57335;52.288;6.056;2023-04-02T06:25:02;102023.03;;;1.86;100.00
69751;BME280;57335;52.288;6.056;2023-04-02T06:27:32;102022.56;;;1.81;99.33
69751;BME280;57335;52.288;6.056;2023-04-02T06:30:02;102027.13;;;1.88;100.00
69751;BME280;57335;52.288;6.056;2023-04-02T06:32:30;102028.66;;;1.91;99.45
69751;BME280;57335;52.288;6.056;2023-04-02T06:34:57;102026.78;;;1.82;100.00
69751;BME280;57335;52.288;6.056;2023-04-02T06:37:31;102036.69;;;1.76;100.00
69751;BME280;57335;52.288;6.056;2023-04-02T06:40:01;102041.13;;;1.86;99.37
69751;BME280;57335;52.288;6.056;2023-04-02T06:42:37;102043.81;;;1.95;100.00
69751;BME280;57335;52.288;6.056;2023-04-02T06:45:12;102055.34;;;1.91;99.61
69751;BME280;57335;52.288;6.056;2023-04-02T06:47:43;102072.84;;;1.88;99.52
69751;BME280;57335;52.288;6.056;2023-04-02T06:50:30;102068.75;;;1.85;99.07
69751;BME280;57335;52.288;6.056;2023-04-02T06:53:03;102072.25;;;1.95;98.59
69751;BME280;57335;52.288;6.056;2023-04-02T06:55:43;102076.13;;;1.90;100.00
69751;BME280;57335;52.288;6.056;2023-04-02T06:58:10;102083.53;;;1.94;99.64
69751;BME280;57335;52.288;6.056;2023-04-02T07:00:42;102093.97;;;2.04;97.53
69751;BME280;57335;52.288;6.056;2023-04-02T07:05:50;102107.38;;;2.09;98.53
69751;BME280;57335;52.288;6.056;2023-04-02T07:08:17;102106.22;;;2.13;98.40
69751;BME280;57335;52.288;6.056;2023-04-02T07:10:43;102117.00;;;2.18;97.75
69751;BME280;57335;52.288;6.056;2023-04-02T07:13:18;102123.25;;;2.16;97.90
69751;BME280;57335;52.288;6.056;2023-04-02T07:15:50;102129.34;;;2.26;97.49
69751;BME280;57335;52.288;6.056;2023-04-02T07:18:28;102136.28;;;2.37;96.90
69751;BME280;57335;52.288;6.056;2023-04-02T07:20:56;102133.34;;;2.30;96.13
69751;BME280;57335;52.288;6.056;2023-04-02T07:23:22;102144.97;;;2.36;97.30
69751;BME280;57335;52.288;6.056;2023-04-02T07:25:50;102155.44;;;2.46;94.78
69751;BME280;57335;52.288;6.056;2023-04-02T07:28:18;102147.28;;;2.50;94.10
69751;BME280;57335;52.288;6.056;2023-04-02T07:30:47;102153.53;;;2.48;96.05
69751;BME280;57335;52.288;6.056;2023-04-02T07:33:15;102169.41;;;2.54;94.94
69751;BME280;57335;52.288;6.056;2023-04-02T07:35:42;102166.97;;;2.42;97.44
69751;BME280;57335;52.288;6.056;2023-04-02T07:38:09;102162.84;;;2.39;93.75
69751;BME280;57335;52.288;6.056;2023-04-02T07:40:36;102174.25;;;2.36;95.07
69751;BME280;57335;52.288;6.056;2023-04-02T07:43:03;102178.50;;;2.37;94.67
69751;BME280;57335;52.288;6.056;2023-04-02T07:45:30;102182.59;;;2.17;95.04
69751;BME280;57335;52.288;6.056;2023-04-02T07:47:57;102185.69;;;2.23;93.12
69751;BME280;57335;52.288;6.056;2023-04-02T07:50:28;102191.06;;;2.08;93.68
69751;BME280;57335;52.288;6.056;2023-04-02T07:52:55;102191.06;;;1.97;93.87
69751;BME280;57335;52.288;6.056;2023-04-02T07:55:21;102190.72;;;2.13;93.77
69751;BME280;57335;52.288;6.056;2023-04-02T07:57:51;102201.53;;;2.29;92.01
69751;BME280;57335;52.288;6.056;2023-04-02T08:00:19;102213.88;;;2.14;93.57
69751;BME280;57335;52.288;6.056;2023-04-02T08:02:46;102212.81;;;2.06;93.46
69751;BME280;57335;52.288;6.056;2023-04-02T08:05:12;102208.25;;;2.21;92.10
69751;BME280;57335;52.288;6.056;2023-04-02T08:07:39;102214.72;;;2.37;92.30
69751;BME280;57335;52.288;6.056;2023-04-02T08:10:07;102225.19;;;2.47;93.17
69751;BME280;57335;52.288;6.056;2023-04-02T08:12:34;102217.88;;;2.52;91.13
69751;BME280;57335;52.288;6.056;2023-04-02T08:15:02;102220.72;;;2.49;91.42
69751;BME280;57335;52.288;6.056;2023-04-02T08:17:28;102225.84;;;2.60;90.24
69751;BME280;57335;52.288;6.056;2023-04-02T08:19:55;102228.69;;;2.69;91.01
69751;BME280;57335;52.288;6.056;2023-04-02T08:22:21;102231.84;;;2.84;89.51
69751;BME280;57335;52.288;6.056;2023-04-02T08:24:47;102233.94;;;3.01;87.93
69751;BME280;57335;52.288;6.056;2023-04-02T08:27:14;102247.44;;;3.05;89.51
69751;BME280;57335;52.288;6.056;2023-04-02T08:29:40;102246.97;;;3.11;88.33
69751;BME280;57335;52.288;6.056;2023-04-02T08:32:09;102253.34;;;2.95;90.52
69751;BME280;57335;52.288;6.056;2023-04-02T08:34:37;102262.28;;;3.03;88.29
69751;BME280;57335;52.288;6.056;2023-04-02T08:37:03;102271.59;;;3.05;89.90
69751;BME280;57335;52.288;6.056;2023-04-02T08:39:29;102276.72;;;3.28;86.91
69751;BME280;57335;52.288;6.056;2023-04-02T08:44:59;102267.38;;;3.36;86.89
69751;BME280;57335;52.288;6.056;2023-04-02T08:47:37;102272.19;;;3.41;87.01
69751;BME280;57335;52.288;6.056;2023-04-02T08:50:14;102286.25;;;3.59;88.28
69751;BME280;57335;52.288;6.056;2023-04-02T08:52:43;102287.66;;;3.85;84.75
69751;BME280;57335;52.288;6.056;2023-04-02T08:55:18;102290.41;;;4.35;84.95
69751;BME280;57335;52.288;6.056;2023-04-02T09:00:36;102298.16;;;5.95;79.18
69751;BME280;57335;52.288;6.056;2023-04-02T09:03:09;102299.88;;;6.14;73.10
69751;BME280;57335;52.288;6.056;2023-04-02T09:05:42;102302.34;;;5.87;74.22
69751;BME280;57335;52.288;6.056;2023-04-02T09:08:18;102309.19;;;6.07;74.47
69751;BME280;57335;52.288;6.056;2023-04-02T09:13:25;102311.66;;;6.18;73.53
69751;BME280;57335;52.288;6.056;2023-04-02T09:16:00;102323.44;;;6.03;72.25
69751;BME280;57335;52.288;6.056;2023-04-02T09:18:30;102328.94;;;5.51;73.19
69751;BME280;57335;52.288;6.056;2023-04-02T09:20:57;102328.91;;;5.61;74.14
69751;BME280;57335;52.288;6.056;2023-04-02T09:23:26;102325.03;;;6.33;72.72
69751;BME280;57335;52.288;6.056;2023-04-02T09:25:53;102340.31;;;7.21;69.43
69751;BME280;57335;52.288;6.056;2023-04-02T09:28:29;102350.56;;;7.68;68.54
69751;BME280;57335;52.288;6.056;2023-04-02T09:31:00;102355.63;;;7.88;67.56
69751;BME280;57335;52.288;6.056;2023-04-02T09:33:49;102349.25;;;8.52;63.58
69751;BME280;57335;52.288;6.056;2023-04-02T09:36:33;102357.22;;;8.51;63.41
69751;BME280;57335;52.288;6.056;2023-04-02T09:39:23;102353.22;;;8.38;65.19
69751;BME280;57335;52.288;6.056;2023-04-02T09:41:51;102355.69;;;8.40;64.14
69751;BME280;57335;52.288;6.056;2023-04-02T09:44:31;102351.50;;;8.47;60.73
69751;BME280;57335;52.288;6.056;2023-04-02T09:47:03;102350.03;;;7.47;65.59
69751;BME280;57335;52.288;6.056;2023-04-02T09:49:35;102352.94;;;6.61;68.61
69751;BME280;57335;52.288;6.056;2023-04-02T09:52:18;102360.28;;;6.75;68.18
69751;BME280;57335;52.288;6.056;2023-04-02T09:54:46;102362.63;;;5.82;71.21
69751;BME280;57335;52.288;6.056;2023-04-02T09:57:18;102367.56;;;5.75;71.63
69751;BME280;57335;52.288;6.056;2023-04-02T09:59:45;102366.97;;;5.52;73.75
69751;BME280;57335;52.288;6.056;2023-04-02T10:02:37;102383.00;;;5.67;73.42
69751;BME280;57335;52.288;6.056;2023-04-02T10:05:06;102391.78;;;5.86;74.75
69751;BME280;57335;52.288;6.056;2023-04-02T10:07:52;102387.00;;;5.91;73.13
69751;BME280;57335;52.288;6.056;2023-04-02T10:10:28;102390.03;;;5.96;73.06
69751;BME280;57335;52.288;6.056;2023-04-02T10:13:59;102393.16;;;6.09;72.74
69751;BME280;57335;52.288;6.056;2023-04-02T10:16:11;102399.59;;;6.34;72.48
69751;BME280;57335;52.288;6.056;2023-04-02T10:18:50;102415.34;;;6.52;70.75
69751;BME280;57335;52.288;6.056;2023-04-02T10:21:24;102384.41;;;6.77;71.67
69751;BME280;57335;52.288;6.056;2023-04-02T10:23:52;102399.13;;;7.06;68.81
69751;BME280;57335;52.288;6.056;2023-04-02T10:26:43;102393.53;;;7.28;67.05
69751;BME280;57335;52.288;6.056;2023-04-02T10:34:45;102406.97;;;7.51;65.67
69751;BME280;57335;52.288;6.056;2023-04-02T10:39:47;102423.19;;;7.73;67.65
69751;BME280;57335;52.288;6.056;2023-04-02T10:42:43;102435.50;;;7.81;65.04
69751;BME280;57335;52.288;6.056;2023-04-02T10:45:23;102433.41;;;7.66;67.12
69751;BME280;57335;52.288;6.056;2023-04-02T10:51:05;102445.22;;;7.61;65.63
69751;BME280;57335;52.288;6.056;2023-04-02T10:56:27;102447.56;;;6.98;66.76
69751;BME280;57335;52.288;6.056;2023-04-02T10:59:22;102435.94;;;6.93;71.38
69751;BME280;57335;52.288;6.056;2023-04-02T11:01:50;102445.47;;;7.12;70.35
69751;BME280;57335;52.288;6.056;2023-04-02T11:04:22;102450.56;;;7.41;69.44
69751;BME280;57335;52.288;6.056;2023-04-02T11:07:03;102447.22;;;7.49;69.00
69751;BME280;57335;52.288;6.056;2023-04-02T11:09:42;102446.44;;;7.11;68.69
69751;BME280;57335;52.288;6.056;2023-04-02T11:12:20;102467.59;;;7.35;68.62
69751;BME280;57335;52.288;6.056;2023-04-02T11:14:49;102462.88;;;7.49;67.58
69751;BME280;57335;52.288;6.056;2023-04-02T11:17:16;102457.56;;;7.68;64.65
69751;BME280;57335;52.288;6.056;2023-04-02T11:19:43;102465.94;;;7.90;65.41
69751;BME280;57335;52.288;6.056;2023-04-02T11:24:51;102461.22;;;8.11;69.27
69751;BME280;57335;52.288;6.056;2023-04-02T11:27:31;102473.25;;;8.40;66.29
69751;BME280;57335;52.288;6.056;2023-04-02T11:30:24;102475.94;;;8.12;63.45
69751;BME280;57335;52.288;6.056;2023-04-02T11:32:51;102472.78;;;8.27;64.07
69751;BME280;57335;52.288;6.056;2023-04-02T11:37:57;102467.03;;;8.59;61.82
69751;BME280;57335;52.288;6.056;2023-04-02T11:48:32;102483.59;;;8.68;63.88
69751;BME280;57335;52.288;6.056;2023-04-02T11:50:59;102490.66;;;8.75;61.64
69751;BME280;57335;52.288;6.056;2023-04-02T11:53:33;102469.91;;;8.74;61.60
69751;BME280;57335;52.288;6.056;2023-04-02T11:56:21;102482.38;;;8.80;62.84
69751;BME280;57335;52.288;6.056;2023-04-02T11:59:05;102481.50;;;8.97;62.59
69751;BME280;57335;52.288;6.056;2023-04-02T12:04:56;102495.84;;;9.19;59.23
69751;BME280;57335;52.288;6.056;2023-04-02T12:09:58;102496.47;;;9.13;60.25
69751;BME280;57335;52.288;6.056;2023-04-02T12:12:30;102512.72;;;9.25;60.46
69751;BME280;57335;52.288;6.056;2023-04-02T12:14:58;102514.66;;;9.23;59.56
69751;BME280;57335;52.288;6.056;2023-04-02T12:17:30;102513.97;;;8.87;61.71
69751;BME280;57335;52.288;6.056;2023-04-02T12:20:22;102520.47;;;8.83;62.07
69751;BME280;57335;52.288;6.056;2023-04-02T12:22:51;102516.59;;;8.69;60.65
69751;BME280;57335;52.288;6.056;2023-04-02T12:25:49;102522.69;;;8.77;62.71
69751;BME280;57335;52.288;6.056;2023-04-02T12:28:18;102518.00;;;8.81;58.68
69751;BME280;57335;52.288;6.056;2023-04-02T12:30:45;102528.56;;;8.97;60.96
69751;BME280;57335;52.288;6.056;2023-04-02T12:33:33;102532.84;;;8.98;61.43
69751;BME280;57335;52.288;6.056;2023-04-02T12:36:02;102526.72;;;9.16;63.82
69751;BME280;57335;52.288;6.056;2023-04-02T12:38:33;102513.50;;;8.91;61.25
69751;BME280;57335;52.288;6.056;2023-04-02T12:41:02;102523.84;;;9.01;63.42
69751;BME280;57335;52.288;6.056;2023-04-02T12:43:34;102528.38;;;9.17;61.43
69751;BME280;57335;52.288;6.056;2023-04-02T12:46:03;102532.41;;;9.11;58.40
69751;BME280;57335;52.288;6.056;2023-04-02T12:48:31;102539.13;;;9.14;59.67
69751;BME280;57335;52.288;6.056;2023-04-02T12:50:58;102550.16;;;9.26;60.65
69751;BME280;57335;52.288;6.056;2023-04-02T12:53:34;102537.94;;;9.34;61.05
69751;BME280;57335;52.288;6.056;2023-04-02T12:56:02;102542.50;;;9.32;61.21
69751;BME280;57335;52.288;6.056;2023-04-02T12:58:39;102542.88;;;9.46;60.74
69751;BME280;57335;52.288;6.056;2023-04-02T13:01:18;102534.63;;;9.24;58.49
69751;BME280;57335;52.288;6.056;2023-04-02T13:04:02;102541.59;;;8.89;64.17
69751;BME280;57335;52.288;6.056;2023-04-02T13:06:29;102540.81;;;8.97;59.86
69751;BME280;57335;52.288;6.056;2023-04-02T13:08:55;102532.44;;;8.67;61.20
69751;BME280;57335;52.288;6.056;2023-04-02T13:11:35;102553.53;;;8.92;61.17
69751;BME280;57335;52.288;6.056;2023-04-02T13:14:04;102547.47;;;8.91;60.95
69751;BME280;57335;52.288;6.056;2023-04-02T13:16:36;102543.38;;;8.89;62.42
69751;BME280;57335;52.288;6.056;2023-04-02T13:21:43;102546.91;;;9.32;61.34
69751;BME280;57335;52.288;6.056;2023-04-02T13:24:50;102552.28;;;9.56;59.43
69751;BME280;57335;52.288;6.056;2023-04-02T13:27:09;102555.47;;;9.76;54.24
69751;BME280;57335;52.288;6.056;2023-04-02T13:29:36;102552.19;;;9.74;55.00
69751;BME280;57335;52.288;6.056;2023-04-02T13:32:05;102558.41;;;9.73;55.29
69751;BME280;57335;52.288;6.056;2023-04-02T13:34:32;102556.78;;;9.72;56.42
69751;BME280;57335;52.288;6.056;2023-04-02T13:36:58;102559.06;;;9.75;58.78
69751;BME280;57335;52.288;6.056;2023-04-02T13:39:25;102546.75;;;9.68;57.57
69751;BME280;57335;52.288;6.056;2023-04-02T13:41:55;102544.72;;;9.53;58.23
69751;BME280;57335;52.288;6.056;2023-04-02T13:44:25;102542.34;;;9.34;59.83
69751;BME280;57335;52.288;6.056;2023-04-02T13:46:53;102551.00;;;9.61;58.50
69751;BME280;57335;52.288;6.056;2023-04-02T13:49:21;102543.31;;;9.67;59.77
69751;BME280;57335;52.288;6.056;2023-04-02T13:51:50;102544.38;;;9.83;55.86
69751;BME280;57335;52.288;6.056;2023-04-02T13:54:47;102544.16;;;9.76;57.95
69751;BME280;57335;52.288;6.056;2023-04-02T13:57:14;102541.25;;;9.87;57.33
69751;BME280;57335;52.288;6.056;2023-04-02T13:59:41;102537.47;;;9.39;61.74
69751;BME280;57335;52.288;6.056;2023-04-02T14:02:10;102556.88;;;9.63;59.45
69751;BME280;57335;52.288;6.056;2023-04-02T14:04:41;102546.28;;;9.64;59.20
69751;BME280;57335;52.288;6.056;2023-04-02T14:08:05;102558.44;;;9.90;56.01
69751;BME280;57335;52.288;6.056;2023-04-02T14:16:34;102565.09;;;10.18;56.39
69751;BME280;57335;52.288;6.056;2023-04-02T14:19:33;102563.59;;;10.24;53.40
69751;BME280;57335;52.288;6.056;2023-04-02T14:22:39;102572.66;;;10.30;55.84
69751;BME280;57335;52.288;6.056;2023-04-02T14:25:26;102568.72;;;10.34;55.32
69751;BME280;57335;52.288;6.056;2023-04-02T14:28:33;102569.38;;;10.36;56.56
69751;BME280;57335;52.288;6.056;2023-04-02T14:33:54;102580.38;;;9.81;59.84
69751;BME280;57335;52.288;6.056;2023-04-02T14:41:53;102589.34;;;10.21;59.87
69751;BME280;57335;52.288;6.056;2023-04-02T14:44:26;102580.97;;;10.25;56.26
69751;BME280;57335;52.288;6.056;2023-04-02T14:47:01;102586.06;;;10.27;58.27
69751;BME280;57335;52.288;6.056;2023-04-02T14:49:39;102585.75;;;10.30;55.51
69751;BME280;57335;52.288;6.056;2023-04-02T14:52:12;102594.59;;;10.29;58.28
69751;BME280;57335;52.288;6.056;2023-04-02T14:54:58;102592.78;;;10.29;57.06
69751;BME280;57335;52.288;6.056;2023-04-02T14:57:30;102589.69;;;10.34;54.03
69751;BME280;57335;52.288;6.056;2023-04-02T15:05:53;102589.34;;;10.21;57.93
69751;BME280;57335;52.288;6.056;2023-04-02T15:13:40;102603.09;;;9.80;58.95
69751;BME280;57335;52.288;6.056;2023-04-02T15:16:19;102604.38;;;9.42;60.46
69751;BME280;57335;52.288;6.056;2023-04-02T15:18:50;102608.69;;;9.51;62.49
69751;BME280;57335;52.288;6.056;2023-04-02T15:26:53;102607.09;;;9.32;62.01
69751;BME280;57335;52.288;6.056;2023-04-02T15:40:37;102605.34;;;9.41;60.99
69751;BME280;57335;52.288;6.056;2023-04-02T15:43:17;102604.94;;;9.53;60.84
69751;BME280;57335;52.288;6.056;2023-04-02T15:46:09;102612.25;;;9.50;60.55
69751;BME280;57335;52.288;6.056;2023-04-02T15:51:34;102617.50;;;9.24;62.95
69751;BME280;57335;52.288;6.056;2023-04-02T15:54:15;102621.72;;;9.43;62.88
69751;BME280;57335;52.288;6.056;2023-04-02T16:03:11;102635.00;;;9.49;63.28
69751;BME280;57335;52.288;6.056;2023-04-02T16:08:39;102644.56;;;9.58;60.41
69751;BME280;57335;52.288;6.056;2023-04-02T16:11:11;102641.09;;;9.58;60.68
69751;BME280;57335;52.288;6.056;2023-04-02T16:13:40;102646.47;;;9.48;62.55